createdAt,value
2022-10-07T00:01:47.919Z,970.28
2022-10-07T00:07:19.635Z,970.28
2022-10-07T00:12:51.134Z,970.26
2022-10-07T00:18:24.964Z,970.22
2022-10-07T00:23:56.799Z,970.24
2022-10-07T00:29:28.525Z,970.22
2022-10-07T00:35:00.276Z,970.18
2022-10-07T00:40:31.857Z,970.12
2022-10-07T00:46:03.702Z,970.10
2022-10-07T00:51:35.140Z,970.01
2022-10-07T00:57:06.598Z,969.97
2022-10-07T01:02:38.583Z,969.87
2022-10-07T01:08:10.096Z,969.81
2022-10-07T01:13:41.841Z,969.77
2022-10-07T01:19:13.362Z,969.67
2022-10-07T01:24:45.051Z,969.63
2022-10-07T01:30:16.840Z,969.57
2022-10-07T01:35:49.643Z,969.51
2022-10-07T01:41:21.520Z,969.46
2022-10-07T01:46:53.302Z,969.32
2022-10-07T01:52:25.247Z,969.30
2022-10-07T01:57:56.914Z,969.24
2022-10-07T02:03:28.768Z,969.20
2022-10-07T02:09:00.349Z,969.18
2022-10-07T02:14:32.177Z,969.20
2022-10-07T02:20:03.815Z,969.18
2022-10-07T02:25:35.913Z,969.10
2022-10-07T02:31:07.560Z,969.08
2022-10-07T02:36:39.361Z,969.04
2022-10-07T02:42:11.189Z,969.00
2022-10-07T02:47:43.175Z,968.98
2022-10-07T02:53:14.492Z,968.94
2022-10-07T02:58:46.377Z,968.94
2022-10-07T03:04:18.142Z,968.92
2022-10-07T03:09:50.056Z,968.86
2022-10-07T03:15:21.920Z,968.81
2022-10-07T03:20:53.742Z,968.77
2022-10-07T03:26:25.554Z,968.75
2022-10-07T03:34:19.239Z,968.67
2022-10-07T03:39:52.178Z,968.65
2022-10-07T03:45:24.045Z,968.67
2022-10-07T03:50:55.924Z,968.65
2022-10-07T03:56:29.610Z,968.61
2022-10-07T04:02:01.438Z,968.61
2022-10-07T04:07:33.026Z,968.57
2022-10-07T04:18:38.117Z,968.51
2022-10-07T04:24:09.990Z,968.45
2022-10-07T04:29:41.721Z,968.41
2022-10-07T04:35:13.093Z,968.36
2022-10-07T04:40:44.441Z,968.34
2022-10-07T04:46:16.263Z,968.28
2022-10-07T04:51:47.889Z,968.22
2022-10-07T04:57:19.606Z,968.18
2022-10-07T05:02:50.986Z,968.16
2022-10-07T05:08:22.976Z,968.12
2022-10-07T05:13:54.668Z,968.14
2022-10-07T05:19:26.252Z,968.12
2022-10-07T05:24:57.881Z,968.14
2022-10-07T05:30:29.797Z,968.12
2022-10-07T05:36:01.350Z,968.12
2022-10-07T05:41:36.101Z,968.10
2022-10-07T05:47:04.854Z,968.08
2022-10-07T05:52:36.574Z,968.08
2022-10-07T05:58:07.926Z,968.10
2022-10-07T06:03:39.699Z,968.10
2022-10-07T06:09:11.301Z,968.12
2022-10-07T06:14:42.606Z,968.14
2022-10-07T06:20:13.932Z,968.14
2022-10-07T06:25:48.797Z,968.18
2022-10-07T06:31:20.446Z,968.22
2022-10-07T06:36:52.189Z,968.24
2022-10-07T06:42:23.549Z,968.22
2022-10-07T06:47:55.272Z,968.24
2022-10-07T06:53:26.938Z,968.22
2022-10-07T06:58:58.349Z,968.22
2022-10-07T07:04:29.674Z,968.20
2022-10-07T07:10:01.086Z,968.20
2022-10-07T07:15:32.886Z,968.24
2022-10-07T07:21:04.945Z,968.24
2022-10-07T07:26:36.408Z,968.26
2022-10-07T07:32:08.619Z,968.22
2022-10-07T07:40:00.478Z,968.24
2022-10-07T07:45:31.454Z,968.20
2022-10-07T07:51:02.892Z,968.18
2022-10-07T07:56:34.680Z,968.16
2022-10-07T08:02:06.724Z,968.10
2022-10-07T08:07:38.463Z,968.08
2022-10-07T08:13:10.210Z,968.06
2022-10-07T08:18:41.716Z,968.06
2022-10-07T08:24:12.832Z,968.02
2022-10-07T08:29:44.343Z,968.02
2022-10-07T08:35:16.410Z,967.98
2022-10-07T08:40:48.842Z,967.98
2022-10-07T08:46:20.308Z,967.92
2022-10-07T08:51:52.035Z,967.89
2022-10-07T08:57:23.474Z,967.85
2022-10-07T09:02:55.310Z,967.81
2022-10-07T09:08:26.687Z,967.77
2022-10-07T09:13:58.220Z,967.71
2022-10-07T09:19:29.671Z,967.65
2022-10-07T09:25:01.151Z,967.61
2022-10-07T09:36:02.439Z,967.53
2022-10-07T09:41:34.174Z,967.49
2022-10-07T09:52:35.667Z,967.43
2022-10-07T10:03:36.962Z,967.41
2022-10-07T10:09:08.620Z,967.36
2022-10-07T10:14:40.467Z,967.34
2022-10-07T10:20:12.225Z,967.30
2022-10-07T10:28:03.797Z,967.18
2022-10-07T10:33:34.636Z,967.16
2022-10-07T10:39:05.999Z,967.12
2022-10-07T10:44:37.858Z,967.06
2022-10-07T10:50:09.644Z,967.02
2022-10-07T11:01:12.827Z,966.92
2022-10-07T11:06:44.766Z,966.85
2022-10-07T11:12:16.471Z,966.73
2022-10-07T11:17:48.206Z,966.65
2022-10-07T11:23:19.594Z,966.59
2022-10-07T11:28:52.774Z,966.51
2022-10-07T11:34:24.142Z,966.41
2022-10-07T11:39:55.652Z,966.35
2022-10-07T11:45:27.502Z,966.29
2022-10-07T11:50:59.344Z,966.24
2022-10-07T11:56:31.153Z,966.16
2022-10-07T12:02:03.021Z,966.10
2022-10-07T12:13:04.699Z,965.96
2022-10-07T12:18:36.518Z,965.86
2022-10-07T12:24:08.353Z,965.77
2022-10-07T12:29:40.125Z,965.71
2022-10-07T12:35:11.957Z,965.57
2022-10-07T12:40:44.160Z,965.49
2022-10-07T12:46:16.254Z,965.41
2022-10-07T12:51:47.699Z,965.35
2022-10-07T13:02:49.573Z,965.22
2022-10-07T13:10:40.607Z,965.04
2022-10-07T13:16:12.042Z,965.04
2022-10-07T13:21:43.721Z,965.06
2022-10-07T13:27:15.723Z,965.00
2022-10-07T13:32:47.503Z,964.90
2022-10-07T13:38:19.103Z,964.87
2022-10-07T13:43:51.108Z,964.81
2022-10-07T13:49:22.724Z,964.81
2022-10-07T13:54:54.327Z,964.73
2022-10-07T14:00:26.285Z,964.67
2022-10-07T14:16:57.047Z,964.63
2022-10-07T14:22:28.629Z,964.55
2022-10-07T14:28:00.446Z,964.51
2022-10-07T14:33:31.991Z,964.45
2022-10-07T14:41:23.742Z,964.30
2022-10-07T14:46:55.534Z,964.32
2022-10-07T14:52:27.184Z,964.30
2022-10-07T15:03:28.605Z,964.18
2022-10-07T15:09:00.588Z,964.12
2022-10-07T15:14:32.063Z,964.08
2022-10-07T15:20:03.686Z,964.06
2022-10-07T15:25:35.462Z,964.00
2022-10-07T15:31:07.152Z,963.94
2022-10-07T15:36:38.803Z,963.92
2022-10-07T15:42:12.382Z,963.92
2022-10-07T15:52:27.188Z,963.84
2022-10-07T16:19:56.544Z,963.84
2022-10-07T16:38:51.800Z,963.88
2022-10-07T16:44:23.595Z,963.88
2022-10-07T16:52:17.330Z,963.88
2022-10-07T17:03:18.501Z,963.88
2022-10-07T17:08:50.480Z,963.88
2022-10-07T17:14:22.313Z,963.90
2022-10-07T17:19:54.073Z,963.86
2022-10-07T17:27:48.144Z,963.86
2022-10-07T17:33:19.779Z,963.84
2022-10-07T17:38:51.751Z,963.90
2022-10-07T17:52:14.346Z,963.94
2022-10-07T17:57:46.002Z,963.94
2022-10-07T18:19:45.958Z,963.92
2022-10-07T18:30:46.803Z,963.88
2022-10-07T18:36:18.135Z,963.84
2022-10-07T18:41:49.423Z,963.84
2022-10-07T18:47:20.906Z,963.84
2022-10-07T18:52:52.750Z,963.80
2022-10-07T18:58:24.438Z,963.80
2022-10-07T19:03:55.995Z,963.76
2022-10-07T19:09:27.452Z,963.74
2022-10-07T19:14:59.058Z,963.76
2022-10-07T19:20:30.953Z,963.72
2022-10-07T19:26:02.863Z,963.74
2022-10-07T19:31:34.772Z,963.72
2022-10-07T19:37:06.376Z,963.74
2022-10-07T19:44:59.961Z,963.72
2022-10-07T19:50:31.275Z,963.71
2022-10-07T19:56:02.762Z,963.76
2022-10-07T20:01:34.446Z,963.74
2022-10-07T20:12:35.322Z,963.71
2022-10-07T20:18:07.197Z,963.71
2022-10-07T20:23:39.001Z,963.71
2022-10-07T20:29:10.777Z,963.67
2022-10-07T20:40:12.068Z,963.59
2022-10-07T20:45:43.870Z,963.57
2022-10-07T20:51:15.633Z,963.51
2022-10-07T20:56:47.616Z,963.49
2022-10-07T21:02:19.714Z,963.45
2022-10-07T21:07:54.665Z,963.45
2022-10-07T21:13:23.379Z,963.39
2022-10-07T21:18:55.319Z,963.37
2022-10-07T21:24:26.902Z,963.37
2022-10-07T21:29:58.603Z,963.29
2022-10-07T21:35:30.186Z,963.29
2022-10-07T21:41:01.828Z,963.29
2022-10-07T21:46:33.763Z,963.29
2022-10-07T21:52:05.314Z,963.35
2022-10-07T22:03:05.978Z,963.31
2022-10-07T22:08:37.522Z,963.29
2022-10-07T22:14:12.536Z,963.27
2022-10-07T22:19:41.152Z,963.25
2022-10-07T22:25:12.821Z,963.22
2022-10-07T22:30:44.662Z,963.14
2022-10-07T22:36:16.394Z,963.12
2022-10-07T22:41:48.177Z,963.10
2022-10-07T22:47:19.911Z,963.06
2022-10-07T22:58:20.868Z,963.00
2022-10-07T23:03:52.919Z,963.00
2022-10-07T23:09:24.637Z,962.94
2022-10-07T23:14:56.318Z,962.92
2022-10-07T23:20:28.023Z,962.90
2022-10-07T23:25:59.428Z,962.88
2022-10-07T23:31:31.245Z,962.84
2022-10-07T23:37:03.003Z,962.84
2022-10-07T23:42:34.736Z,962.76
2022-10-07T23:48:06.473Z,962.76
2022-10-07T23:53:38.117Z,962.74
2022-10-07T23:59:09.855Z,962.74
